• Join FlightAware (Why Join?)
  • Login
  • US Flag 
02:52AM EDT


 

Airport Tracker/Info


-or-


 

Live Flight TrackerFlight Track Log ✈ N400PU ✈ 04-Nov-2013 ✈ KLAF - KMDW

Flight Track Log - Related Links

Times and Time Zones

All times are in EST time to prevent confusion due to time zone crossing. See the N400PU flight status page for this flight to view local times or setup timezone preferences in your user account.

Time Position Orientation Groundspeed Altitude Reporting Facility
EST Latitude Longitude Course Direction KTS MPH feet Rate Location/Type
10:34AM 40.4097 -86.9142 90° East 145 167 1,900  Level Chicago Center
10:34AM 40.4094 -86.8622 90° East 187 215 4,600 3,000 Climbing Chicago Center
10:34AM 40.4114 -86.8583 57° Northeast 200 230 4,700 2,520 Climbing Chicago Center
10:35AM 40.4803 -86.8517 North 260 299 7,800 2,580 Climbing Chicago Center
10:37AM 40.5492 -86.9014 331° Northwest 280 322 10,100 1,980 Climbing Chicago Center
10:38AM 40.6294 -86.8906 North 321 369 12,000 1,380 Climbing Chicago Center
10:39AM 40.7078 -86.8053 40° Northeast 334 384 13,000 480 Climbing Chicago Center
10:40AM 40.7856 -86.7217 39° Northeast 381 438 13,000  Level Chicago Center
10:41AM 40.8719 -86.6281 39° Northeast 398 458 13,000 -480 Level Chicago Center
10:42AM 40.9958 -86.5878 14° North 406 467 12,100 -1,020 Descending Chicago Center
10:43AM 41.1061 -86.5950 357° North 399 459 11,000 -600 Descending Chicago Center
10:44AM 41.2136 -86.6044 356° North 390 449 10,900 -540 Descending Chicago Center
10:45AM 41.2769 -86.6994 312° West 350 403 10,000 -480 Descending Chicago Center
10:46AM 41.3283 -86.7994 304° West 325 374 10,000  Level Chicago Center
10:47AM 41.3783 -86.8936 305° West 315 362 10,000 -420 Level Chicago Center
10:48AM 41.4242 -86.9800 305° West 296 341 9,200 -1,320 Descending Chicago Center
10:49AM 41.4753 -87.0803 304° West 279 321 7,300 -1,560 Descending Chicago Center
10:50AM 41.5194 -87.1611 306° West 275 316 6,000 -720 Descending Chicago Center
10:51AM 41.5800 -87.2250 322° Northwest 277 319 5,900 -540 Descending Chicago Center
10:52AM 41.6036 -87.3172 289° West 266 306 5,000 -1,020 Descending Chicago Center
10:53AM 41.6228 -87.4064 286° West 258 297 3,900 -540 Descending Chicago Center
10:54AM 41.6442 -87.4889 289° West 213 245 3,900 60 Level Chicago Center
10:55AM 41.6594 -87.5522 288° West 191 220 4,100 -180 Climbing Chicago Center
10:56AM 41.6875 -87.6089 304° West 187 215 3,600 -780 Descending Chicago Center
10:57AM 41.7219 -87.6614 311° West 190 219 2,600 -960 Descending Chicago Center
10:58AM 41.7581 -87.6969 324° Northwest 179 206 1,700 -600 Descending Chicago Center
10:59AM 41.7983 -87.6828 15° North 161 185 1,400 -300 Descending Chicago Center
11:00AM 41.8103 -87.7350 287° West 155 178 1,100 -300 Descending Chicago Center
11:02AM 41.7833 -87.7500 20° North  Level FlightAware Approximate